Time;durP1;ratioP1;P1;durP2;ratioP2;P2;SDS_P1;SDS_P2;PMS_P1;PMS_P2;Temp;Humidity;BMP_temperature;BMP_pressure;BME280_temperature;BME280_humidity;BME280_pressure;Samples;Min_cycle;Max_cycle;Signal;HPM_P1;HPM_P2
2022/04/25 00:01:33;;;;;;;0.00;0.00;;;;;;;13.29;52.62;101148.25;7360030;19;20010;-61
2022/04/25 00:03:58;;;;;;;0.00;0.00;;;;;;;13.26;52.58;101143.09;7359375;19;20003;-61
2022/04/25 00:06:24;;;;;;;0.00;0.00;;;;;;;13.14;53.20;101137.25;7360499;19;20471;-61
2022/04/25 00:08:49;;;;;;;0.00;0.00;;;;;;;13.18;53.58;101152.00;7357359;19;20101;-61
2022/04/25 00:11:15;;;;;;;0.00;0.00;;;;;;;13.10;53.32;101135.59;7357787;19;20077;-61
2022/04/25 00:13:40;;;;;;;0.00;0.00;;;;;;;13.05;52.93;101134.84;7359014;19;20034;-61
2022/04/25 00:16:05;;;;;;;0.00;0.00;;;;;;;13.06;53.41;101140.97;7354660;19;20010;-61
2022/04/25 00:18:31;;;;;;;0.00;0.00;;;;;;;13.10;53.36;101156.56;7360887;19;20046;-61
2022/04/25 00:20:57;;;;;;;0.00;0.00;;;;;;;13.08;53.14;101158.38;7356891;19;20007;-62
2022/04/25 00:23:24;;;;;;;0.00;0.00;;;;;;;13.06;54.09;101148.81;7359952;19;20018;-61
2022/04/25 00:25:49;;;;;;;0.00;0.00;;;;;;;12.89;53.23;101134.38;7361432;19;20041;-61
2022/04/25 00:28:15;;;;;;;0.00;0.00;;;;;;;13.02;53.38;101153.28;7359076;19;20010;-61
2022/04/25 00:30:40;;;;;;;0.00;0.00;;;;;;;12.99;54.04;101148.97;7361499;19;20042;-62
2022/04/25 00:33:06;;;;;;;0.00;0.00;;;;;;;12.93;54.07;101141.28;7350175;19;20343;-61
2022/04/25 00:35:31;;;;;;;0.00;0.00;;;;;;;12.94;53.89;101142.13;7361073;19;20011;-61
2022/04/25 00:37:57;;;;;;;0.00;0.00;;;;;;;12.93;53.25;101143.91;7362210;19;21830;-62
2022/04/25 00:40:23;;;;;;;0.00;0.00;;;;;;;12.80;54.07;101124.13;7355861;19;20347;-62
2022/04/25 00:42:50;;;;;;;0.00;0.00;;;;;;;12.86;53.36;101141.47;7359476;19;20014;-61
2022/04/25 00:45:16;;;;;;;0.00;0.00;;;;;;;12.84;53.89;101149.38;7355054;19;20072;-61
2022/04/25 00:47:43;;;;;;;0.00;0.00;;;;;;;12.80;54.00;101150.34;7359789;19;20032;-61
2022/04/25 00:50:09;;;;;;;0.00;0.00;;;;;;;12.76;53.27;101145.22;7352409;19;20034;-61
2022/04/25 00:52:36;;;;;;;0.00;0.00;;;;;;;12.72;54.11;101149.66;7360903;19;20891;-62
2022/04/25 00:55:04;;;;;;;0.00;0.00;;;;;;;12.69;53.69;101150.59;7355720;19;20463;-62
2022/04/25 00:57:30;;;;;;;0.00;0.00;;;;;;;12.66;53.83;101140.19;7361482;19;20018;-61
2022/04/25 00:59:57;;;;;;;0.00;0.00;;;;;;;12.51;54.15;101127.44;7357336;19;20019;-62
2022/04/25 01:02:24;;;;;;;0.00;0.00;;;;;;;12.53;53.58;101137.91;7356407;19;20007;-61
2022/04/25 01:04:50;;;;;;;0.00;0.00;;;;;;;12.51;54.22;101135.31;7357492;19;20049;-61
2022/04/25 01:07:15;;;;;;;0.00;0.00;;;;;;;12.48;53.78;101135.41;7351145;19;20505;-61
2022/04/25 01:09:41;;;;;;;0.00;0.00;;;;;;;12.52;54.03;101151.88;7348774;19;20026;-61
2022/04/25 01:12:06;;;;;;;0.00;0.00;;;;;;;12.39;54.42;101130.38;7359605;19;20014;-62
2022/04/25 01:14:32;;;;;;;0.00;0.00;;;;;;;12.44;53.92;101141.59;7346837;19;20030;-60
2022/04/25 01:16:57;;;;;;;0.00;0.00;;;;;;;12.36;53.86;101135.66;7357896;19;20010;-61
2022/04/25 01:19:23;;;;;;;0.00;0.00;;;;;;;12.36;54.29;101148.75;7354826;19;20039;-62
2022/04/25 01:21:58;;;;;;;0.00;0.00;;;;;;;12.34;53.33;101153.19;7352472;19;20006;-61
2022/04/25 01:27:16;;;;;;;0.00;0.00;;;;;;;12.23;53.29;101139.47;7362181;19;20017;-59
2022/04/25 01:29:43;;;;;;;0.00;0.00;;;;;;;12.17;53.42;101149.19;7363129;19;20017;-59
2022/04/25 01:32:09;;;;;;;0.00;0.00;;;;;;;12.18;53.61;101156.16;7356795;19;20062;-59
2022/04/25 01:34:38;;;;;;;0.00;0.00;;;;;;;12.14;53.88;101154.50;7363610;19;20038;-62
2022/04/25 01:37:09;;;;;;;0.00;0.00;;;;;;;12.10;53.67;101147.59;7358459;19;20010;-62
2022/04/25 01:39:36;;;;;;;0.00;0.00;;;;;;;12.06;53.30;101156.41;7365151;19;20411;-62
2022/04/25 01:42:02;;;;;;;0.00;0.00;;;;;;;12.02;53.39;101157.38;7362332;19;20475;-60
2022/04/25 01:44:31;;;;;;;0.00;0.00;;;;;;;11.97;53.83;101159.25;7367239;19;20013;-62
2022/04/25 01:46:56;;;;;;;0.00;0.00;;;;;;;11.92;53.95;101155.84;7357180;19;20372;-61
2022/04/25 01:49:22;;;;;;;0.00;0.00;;;;;;;11.89;54.15;101158.53;7362771;19;20018;-62
2022/04/25 01:51:48;;;;;;;0.00;0.00;;;;;;;11.86;54.28;101155.97;7365748;19;20003;-61
2022/04/25 01:54:20;;;;;;;0.00;0.00;;;;;;;11.84;54.13;101153.38;7356227;19;20702;-62
2022/04/25 01:56:45;;;;;;;0.00;0.00;;;;;;;11.81;53.80;101149.94;7367094;19;20044;-62
2022/04/25 01:59:10;;;;;;;0.00;0.00;;;;;;;11.66;54.35;101132.81;7353011;19;20002;-61
2022/04/25 02:01:36;;;;;;;0.00;0.00;;;;;;;11.75;55.03;101157.91;7355224;19;20017;-61
2022/04/25 02:04:01;;;;;;;0.00;0.00;;;;;;;11.64;54.20;101143.28;7353408;19;21309;-61
2022/04/25 02:06:27;;;;;;;0.00;0.00;;;;;;;11.63;54.94;101132.88;7361355;19;20010;-59
2022/04/25 02:08:53;;;;;;;0.00;0.00;;;;;;;11.69;54.13;101138.81;7358450;19;20009;-61
2022/04/25 02:11:25;;;;;;;0.00;0.00;;;;;;;11.63;54.94;101144.19;7360097;19;20015;-61
2022/04/25 02:13:54;;;;;;;0.00;0.00;;;;;;;11.65;54.29;101147.63;7358724;19;20698;-60
2022/04/25 02:16:21;;;;;;;0.00;0.00;;;;;;;11.62;54.26;101142.47;7359235;19;20034;-60
2022/04/25 02:18:47;;;;;;;0.00;0.00;;;;;;;11.58;54.60;101143.41;7356555;19;20458;-62
2022/04/25 02:21:12;;;;;;;0.00;0.00;;;;;;;11.59;54.17;101144.28;7358004;19;20002;-62
2022/04/25 02:23:38;;;;;;;0.00;0.00;;;;;;;11.51;54.55;101130.50;7352936;19;20017;-61
2022/04/25 02:26:08;;;;;;;0.00;0.00;;;;;;;11.55;54.80;101142.59;7357271;19;20010;-62
2022/04/25 02:28:34;;;;;;;0.00;0.00;;;;;;;11.53;54.02;101141.78;7360285;19;20018;-60
2022/04/25 02:31:00;;;;;;;0.00;0.00;;;;;;;11.50;54.52;101142.69;7360153;19;20002;-60
2022/04/25 02:33:27;;;;;;;0.00;0.00;;;;;;;11.47;54.71;101136.69;7358654;19;20481;-61
2022/04/25 02:35:53;;;;;;;0.00;0.00;;;;;;;11.44;54.27;101132.34;7344529;19;20020;-61
2022/04/25 02:38:18;;;;;;;0.00;0.00;;;;;;;11.41;54.21;101137.66;7349905;19;20633;-59
2022/04/25 02:40:44;;;;;;;0.00;0.00;;;;;;;11.36;54.17;101134.28;7358477;19;19998;-61
2022/04/25 02:43:09;;;;;;;0.00;0.00;;;;;;;11.35;54.58;101143.00;7348055;19;20014;-61
2022/04/25 02:45:35;;;;;;;0.00;0.00;;;;;;;11.29;54.67;101130.91;7350032;19;20024;-60
2022/04/25 02:48:01;;;;;;;0.00;0.00;;;;;;;11.29;54.38;101138.75;7361932;19;20014;-61
2022/04/25 02:50:26;;;;;;;0.00;0.00;;;;;;;11.23;54.29;101128.41;7355213;19;20003;-61
2022/04/25 02:52:53;;;;;;;0.00;0.00;;;;;;;11.26;54.67;101137.97;7360195;19;20010;-61
2022/04/25 02:55:20;;;;;;;0.00;0.00;;;;;;;11.24;54.29;101142.34;7357025;19;20011;-62
2022/04/25 02:57:45;;;;;;;0.00;0.00;;;;;;;11.20;54.51;101127.59;7362038;19;19998;-61
2022/04/25 03:00:11;;;;;;;0.00;0.00;;;;;;;11.20;54.66;101132.81;7343974;19;20013;-61
2022/04/25 03:02:37;;;;;;;0.03;0.03;;;;;;;11.11;54.34;101128.63;7359310;19;20030;-61
2022/04/25 03:05:03;;;;;;;0.00;0.00;;;;;;;11.14;54.30;101129.41;7356023;19;20002;-61
2022/04/25 03:07:28;;;;;;;0.00;0.00;;;;;;;11.13;53.75;101122.47;7352615;19;20010;-61
2022/04/25 03:09:54;;;;;;;0.00;0.00;;;;;;;11.11;54.22;101128.63;7358772;19;20010;-61
2022/04/25 03:12:19;;;;;;;0.00;0.00;;;;;;;11.08;53.89;101141.75;7358272;19;20042;-61
2022/04/25 03:14:48;;;;;;;0.00;0.00;;;;;;;10.99;54.33;101114.00;7359899;19;20010;-60
2022/04/25 03:17:13;;;;;;;0.00;0.00;;;;;;;11.04;53.96;101125.25;7356284;19;20002;-61
2022/04/25 03:19:39;;;;;;;0.00;0.00;;;;;;;11.02;53.60;101140.09;7357639;19;20021;-61
2022/04/25 03:22:05;;;;;;;0.00;0.00;;;;;;;11.00;54.00;101136.66;7357708;19;20014;-61
2022/04/25 03:24:30;;;;;;;0.00;0.00;;;;;;;10.99;53.75;101140.16;7359717;19;20023;-62
2022/04/25 03:26:56;;;;;;;0.00;0.00;;;;;;;10.98;54.03;101137.56;7365190;19;20343;-61
2022/04/25 03:29:22;;;;;;;0.00;0.00;;;;;;;10.96;54.38;101135.00;7351914;19;22205;-61
2022/04/25 03:31:47;;;;;;;0.00;0.00;;;;;;;10.96;54.18;101134.13;7362892;19;20010;-61
2022/04/25 03:34:13;;;;;;;0.00;0.00;;;;;;;10.95;54.17;101133.28;7361929;19;20078;-61
2022/04/25 03:36:38;;;;;;;0.00;0.00;;;;;;;10.94;53.93;101126.31;7353818;19;20006;-61
2022/04/25 03:39:04;;;;;;;0.00;0.00;;;;;;;10.90;54.46;101130.75;7365323;19;20006;-61
2022/04/25 03:41:31;;;;;;;0.00;0.00;;;;;;;10.76;54.08;101111.81;7360450;19;20010;-61
2022/04/25 03:43:56;;;;;;;0.00;0.00;;;;;;;10.83;54.01;101138.69;7360497;19;20022;-60
2022/04/25 03:46:22;;;;;;;0.00;0.00;;;;;;;10.80;53.89;101123.09;7354024;19;20002;-61
2022/04/25 03:48:47;;;;;;;0.00;0.00;;;;;;;10.77;53.25;101121.38;7357354;19;20006;-62
2022/04/25 03:51:14;;;;;;;0.00;0.00;;;;;;;10.75;53.36;101122.31;7362001;19;20038;-61
2022/04/25 03:53:40;;;;;;;0.00;0.00;;;;;;;10.67;53.63;101111.09;7358371;19;20343;-61
2022/04/25 03:58:50;;;;;;;0.00;0.00;;;;;;;10.65;53.30;101135.50;7359963;19;20014;-61
2022/04/25 04:01:15;;;;;;;0.00;0.00;;;;;;;10.63;53.29;101125.94;7360349;19;20007;-61
2022/04/25 04:03:40;;;;;;;0.00;0.00;;;;;;;10.60;53.71;101126.88;7353261;19;20046;-61
2022/04/25 04:06:08;;;;;;;0.00;0.00;;;;;;;10.58;54.23;101128.63;7359595;19;20017;-61
2022/04/25 04:08:33;;;;;;;0.00;0.00;;;;;;;10.55;54.29;101123.47;7356505;19;20013;-61
2022/04/25 04:10:58;;;;;;;0.00;0.00;;;;;;;10.55;54.41;101128.72;7360533;19;20010;-61
2022/04/25 04:13:24;;;;;;;0.00;0.00;;;;;;;10.40;55.10;101097.63;7361543;19;20030;-61
2022/04/25 04:15:50;;;;;;;0.00;0.00;;;;;;;10.57;54.74;101116.47;7352575;19;20006;-61
2022/04/25 04:18:15;;;;;;;0.00;0.00;;;;;;;10.45;54.46;101103.63;7361824;19;20023;-61
2022/04/25 04:20:41;;;;;;;0.00;0.00;;;;;;;10.51;54.97;101119.19;7361788;19;20367;-62
2022/04/25 04:23:06;;;;;;;0.00;0.00;;;;;;;10.47;54.88;101116.66;7354125;19;20781;-59
2022/04/25 04:25:32;;;;;;;0.00;0.00;;;;;;;10.41;54.95;101109.78;7359107;19;20026;-61
2022/04/25 04:27:59;;;;;;;0.00;0.00;;;;;;;10.40;54.54;101113.28;7358750;19;20018;-61
2022/04/25 04:30:24;;;;;;;0.00;0.00;;;;;;;10.33;54.98;101109.88;7349769;19;20017;-62
2022/04/25 04:32:52;;;;;;;0.00;0.00;;;;;;;10.37;54.79;101113.31;7356558;19;20006;-61
2022/04/25 04:38:05;;;;;;;0.00;0.00;;;;;;;10.30;55.00;101111.69;7356040;19;20006;-61
2022/04/25 04:40:31;;;;;;;0.00;0.00;;;;;;;10.21;55.20;101098.75;7359881;19;20018;-59
2022/04/25 04:42:57;;;;;;;0.00;0.00;;;;;;;10.24;54.60;101116.97;7363200;19;20025;-61
2022/04/25 04:45:23;;;;;;;0.00;0.00;;;;;;;10.24;54.73;101122.19;7347350;19;20010;-61
2022/04/25 04:47:49;;;;;;;0.00;0.00;;;;;;;10.23;54.96;101123.06;7355106;19;20007;-61
2022/04/25 04:50:16;;;;;;;0.00;0.00;;;;;;;10.24;55.56;101119.59;7359006;19;20024;-61
2022/04/25 04:53:01;;;;;;;0.00;0.00;;;;;;;10.25;54.10;101130.03;7353368;19;20014;-61
2022/04/25 04:55:27;;;;;;;0.00;0.00;;;;;;;10.27;55.27;101128.25;7358363;19;20011;-61
2022/04/25 04:57:55;;;;;;;0.00;0.00;;;;;;;10.30;55.34;101132.56;7358239;19;20018;-61
2022/04/25 05:00:23;;;;;;;0.00;0.00;;;;;;;10.25;55.24;101114.38;7357077;19;20082;-61
2022/04/25 05:02:49;;;;;;;;;;;;;;;10.38;53.21;101133.31;7370818;19;20007;-61
2022/04/25 05:05:14;;;;;;;0.00;0.00;;;;;;;10.28;55.72;101109.09;7373602;19;19915;-61
2022/04/25 05:07:41;;;;;;;0.00;0.00;;;;;;;10.36;55.72;101127.25;7361577;19;20007;-61
2022/04/25 05:10:08;;;;;;;0.00;0.00;;;;;;;10.32;55.92;101117.75;7365042;19;20373;-58
2022/04/25 05:12:46;;;;;;;0.00;0.00;;;;;;;10.51;54.27;101153.13;7372136;19;20372;-61
2022/04/25 05:15:15;;;;;;;0.00;0.00;;;;;;;10.52;55.30;101157.47;7362512;19;20007;-61
2022/04/25 05:17:42;;;;;;;0.00;0.00;;;;;;;10.55;55.43;101157.44;7371817;19;19998;-61
2022/04/25 05:20:11;;;;;;;0.00;0.00;;;;;;;10.42;56.06;101137.59;7372307;19;20018;-60
2022/04/25 05:22:44;;;;;;;0.00;0.00;;;;;;;10.60;55.68;101160.84;7370742;19;20466;-61
2022/04/25 05:25:10;;;;;;;0.00;0.00;;;;;;;10.56;56.08;101153.94;7370314;19;20834;-61
2022/04/25 05:27:35;;;;;;;0.00;0.00;;;;;;;10.68;56.34;101165.06;7371880;19;20081;-58
2022/04/25 05:30:01;;;;;;;0.00;0.00;;;;;;;10.73;56.26;101173.69;7366943;19;20047;-61
2022/04/25 05:32:26;;;;;;;0.00;0.00;;;;;;;10.78;56.32;101171.88;7367963;19;20011;-60
2022/04/25 05:34:52;;;;;;;0.00;0.00;;;;;;;10.83;55.79;101170.03;7370526;19;20573;-61
2022/04/25 05:37:17;;;;;;;0.00;0.00;;;;;;;10.87;56.35;101171.72;7372436;19;20039;-61
2022/04/25 05:39:42;;;;;;;0.00;0.00;;;;;;;10.91;56.23;101179.50;7362735;19;20010;-61
2022/04/25 05:42:08;;;;;;;0.00;0.00;;;;;;;10.96;55.58;101176.81;7374347;19;20049;-61
2022/04/25 05:44:33;;;;;;;0.00;0.00;;;;;;;10.90;55.85;101163.84;7366528;19;20006;-61
2022/04/25 05:46:59;;;;;;;0.00;0.00;;;;;;;11.04;56.03;101180.13;7368836;19;20010;-61
2022/04/25 05:52:08;;;;;;;0.00;0.00;;;;;;;11.13;56.35;101182.59;7367928;19;20023;-61
2022/04/25 05:54:36;;;;;;;0.00;0.00;;;;;;;11.19;55.97;101184.22;7372572;19;20002;-61
2022/04/25 05:57:01;;;;;;;0.00;0.00;;;;;;;11.22;55.87;101184.19;7367987;19;20006;-61
2022/04/25 05:59:29;;;;;;;0.00;0.00;;;;;;;11.29;56.17;101182.31;7361632;19;20746;-62
2022/04/25 06:01:56;;;;;;;0.00;0.00;;;;;;;11.34;55.92;101175.25;7370367;19;20725;-59
2022/04/25 06:04:22;;;;;;;0.00;0.00;;;;;;;11.36;55.19;101181.34;7361543;19;20012;-61
2022/04/25 06:06:47;;;;;;;0.00;0.00;;;;;;;11.32;55.85;101159.59;7366655;19;19999;-61
2022/04/25 06:09:14;;;;;;;0.00;0.00;;;;;;;11.50;55.81;101191.53;7367251;19;20006;-60
2022/04/25 06:11:39;;;;;;;0.00;0.00;;;;;;;11.52;55.74;101192.38;7365824;19;20387;-60
2022/04/25 06:14:05;;;;;;;0.00;0.00;;;;;;;11.58;56.03;101187.88;7363995;19;20006;-61
2022/04/25 06:16:31;;;;;;;0.00;0.00;;;;;;;11.63;55.85;101175.56;7363135;19;20006;-61
2022/04/25 06:18:56;;;;;;;0.00;0.00;;;;;;;11.62;55.50;101168.63;7360114;19;20013;-61
2022/04/25 06:21:22;;;;;;;0.00;0.00;;;;;;;11.68;55.20;101188.56;7362502;19;20044;-61
2022/04/25 06:23:47;;;;;;;0.00;0.00;;;;;;;11.72;55.62;101192.00;7366072;19;20002;-61
2022/04/25 06:26:12;;;;;;;0.00;0.00;;;;;;;11.69;55.61;101191.16;7361286;19;20082;-59
2022/04/25 06:28:38;;;;;;;0.00;0.00;;;;;;;11.70;55.37;101187.63;7356180;19;20017;-61
2022/04/25 06:31:03;;;;;;;0.00;0.00;;;;;;;11.74;54.87;101192.81;7363954;19;20013;-61
2022/04/25 06:33:29;;;;;;;0.00;0.00;;;;;;;11.74;55.10;101198.06;7357930;19;20010;-60
2022/04/25 06:35:54;;;;;;;0.00;0.00;;;;;;;11.72;55.16;101203.31;7359460;19;20091;-61
2022/04/25 06:38:19;;;;;;;0.00;0.00;;;;;;;11.74;55.46;101209.38;7357728;19;20017;-61
2022/04/25 06:40:46;;;;;;;0.00;0.00;;;;;;;11.73;55.47;101206.81;7341880;19;20566;-61
2022/04/25 06:43:13;;;;;;;0.00;0.00;;;;;;;11.73;55.23;101205.03;7357728;19;20022;-61
2022/04/25 06:45:39;;;;;;;0.00;0.00;;;;;;;11.74;55.34;101208.53;7359375;19;20018;-61
2022/04/25 06:48:04;;;;;;;0.00;0.00;;;;;;;11.76;55.60;101209.34;7363314;19;20036;-61
2022/04/25 06:50:30;;;;;;;0.00;0.00;;;;;;;11.79;55.85;101214.53;7361595;19;20006;-61
2022/04/25 06:52:55;;;;;;;0.00;0.00;;;;;;;11.80;55.85;101208.38;7348235;19;20020;-60
2022/04/25 06:55:21;;;;;;;0.00;0.00;;;;;;;11.82;55.61;101214.50;7359391;19;20014;-60
2022/04/25 06:57:49;;;;;;;0.00;0.00;;;;;;;11.78;55.10;101197.09;7359202;19;20650;-62
2022/04/25 07:00:17;;;;;;;0.00;0.00;;;;;;;11.79;55.37;101197.06;7356381;19;20095;-60
2022/04/25 07:02:44;;;;;;;0.00;0.00;;;;;;;11.81;55.67;101199.66;7352338;19;20010;-61
2022/04/25 07:05:09;;;;;;;0.00;0.00;;;;;;;11.92;55.06;101216.06;7358900;19;20011;-62
2022/04/25 07:07:34;;;;;;;0.00;0.00;;;;;;;11.95;55.27;101223.81;7351066;19;20034;-61
2022/04/25 07:10:01;;;;;;;0.00;0.00;;;;;;;11.96;55.04;101217.69;7358041;19;20497;-59
2022/04/25 07:12:27;;;;;;;0.00;0.00;;;;;;;12.02;55.01;101220.22;7354428;19;20019;-62
2022/04/25 07:14:53;;;;;;;0.00;0.00;;;;;;;12.07;55.12;101228.84;7356238;19;20025;-61
2022/04/25 07:17:18;;;;;;;0.00;0.00;;;;;;;12.08;55.17;101229.69;7332208;19;20002;-61
2022/04/25 07:19:43;;;;;;;0.00;0.00;;;;;;;12.16;55.05;101228.63;7337022;19;20124;-61
2022/04/25 07:30:22;;;;;;;0.00;0.00;;;;;;;12.35;54.04;101223.00;7360039;19;20014;-62
2022/04/25 07:32:48;;;;;;;0.00;0.00;;;;;;;12.41;53.71;101228.97;7352887;19;20007;-62
2022/04/25 07:35:13;;;;;;;0.00;0.00;;;;;;;12.49;53.74;101235.81;7360014;19;20014;-61
2022/04/25 07:37:39;;;;;;;0.00;0.00;;;;;;;12.53;53.71;101232.22;7348600;19;19999;-61
2022/04/25 07:40:08;;;;;;;0.00;0.00;;;;;;;12.56;53.64;101233.00;7353140;19;20003;-61
2022/04/25 07:42:34;;;;;;;0.00;0.00;;;;;;;12.61;53.91;101239.00;7353561;19;20011;-61
2022/04/25 07:45:00;;;;;;;0.00;0.00;;;;;;;12.56;53.76;101224.28;7347748;19;20025;-62
2022/04/25 07:47:25;;;;;;;0.00;0.00;;;;;;;12.62;53.54;101229.38;7357182;19;20707;-60
2022/04/25 07:49:51;;;;;;;0.00;0.00;;;;;;;12.73;53.63;101236.13;7358092;19;20027;-61
2022/04/25 07:52:17;;;;;;;0.00;0.00;;;;;;;12.78;53.99;101237.78;7352390;19;20672;-61
2022/04/25 07:54:42;;;;;;;0.00;0.00;;;;;;;12.84;53.36;101250.72;7347986;19;20019;-62
2022/04/25 07:57:07;;;;;;;0.00;0.00;;;;;;;12.89;53.41;101246.25;7357230;19;20014;-61
2022/04/25 07:59:34;;;;;;;0.00;0.00;;;;;;;12.96;53.49;101253.06;7356143;19;20074;-61
2022/04/25 08:01:59;;;;;;;0.00;0.00;;;;;;;13.03;52.95;101248.50;7357297;19;20034;-61
2022/04/25 08:04:25;;;;;;;0.00;0.00;;;;;;;13.07;52.39;101245.78;7360331;19;20466;-61
2022/04/25 08:06:50;;;;;;;0.00;0.00;;;;;;;13.16;52.20;101255.19;7359815;19;20523;-61
2022/04/25 08:09:16;;;;;;;0.00;0.00;;;;;;;13.23;52.17;101246.31;7363263;19;20010;-62
2022/04/25 08:11:42;;;;;;;0.08;0.08;;;;;;;13.33;52.23;101257.41;7349391;19;20491;-61
2022/04/25 08:19:37;;;;;;;0.00;0.00;;;;;;;13.60;52.46;101251.47;7364610;19;20013;-61
2022/04/25 08:22:06;;;;;;;0.00;0.00;;;;;;;13.69;52.07;101256.50;7362105;19;20034;-60
2022/04/25 08:24:33;;;;;;;0.00;0.00;;;;;;;13.80;51.92;101253.56;7356577;19;20016;-60
2022/04/25 08:26:58;;;;;;;0.00;0.00;;;;;;;13.86;51.43;101252.53;7354588;19;20020;-61
2022/04/25 08:29:24;;;;;;;0.00;0.00;;;;;;;14.00;51.64;101256.50;7359485;19;20002;-61
2022/04/25 08:31:50;;;;;;;0.00;0.00;;;;;;;14.11;50.51;101248.31;7357722;19;20007;-60
2022/04/25 08:34:16;;;;;;;0.00;0.00;;;;;;;14.16;49.85;101249.06;7353426;19;20462;-61
2022/04/25 08:36:42;;;;;;;0.00;0.00;;;;;;;14.28;49.77;101251.31;7358394;19;20007;-61
2022/04/25 08:39:07;;;;;;;0.00;0.00;;;;;;;14.38;49.43;101251.03;7357981;19;20002;-61
2022/04/25 08:41:58;;;;;;;0.00;0.00;;;;;;;14.55;49.55;101256.72;7359726;19;20006;-61
2022/04/25 08:44:25;;;;;;;0.00;0.00;;;;;;;14.61;49.17;101259.16;7351365;19;20010;-61
2022/04/25 08:46:52;;;;;;;0.00;0.00;;;;;;;14.68;49.10;101258.03;7355259;19;20711;-60
2022/04/25 08:49:21;;;;;;;0.00;0.00;;;;;;;14.82;49.21;101257.63;7360097;19;20698;-58
2022/04/25 08:51:49;;;;;;;0.00;0.00;;;;;;;14.88;48.77;101261.81;7353635;19;20002;-62
2022/04/25 08:54:15;;;;;;;0.00;0.00;;;;;;;14.96;48.64;101259.81;7360677;19;20013;-61
2022/04/25 08:56:41;;;;;;;0.00;0.00;;;;;;;15.06;48.03;101269.13;7360980;19;20868;-61
2022/04/25 08:59:08;;;;;;;0.00;0.00;;;;;;;15.12;47.56;101270.72;7350050;19;20446;-61
2022/04/25 09:01:35;;;;;;;0.00;0.00;;;;;;;15.07;47.84;101252.44;7359753;19;20359;-61
2022/04/25 09:04:01;;;;;;;0.00;0.00;;;;;;;15.18;47.45;101271.34;7357900;19;19999;-60
2022/04/25 09:06:27;;;;;;;0.00;0.00;;;;;;;15.16;47.54;101278.44;7349775;19;20006;-61
2022/04/25 09:08:53;;;;;;;0.00;0.00;;;;;;;15.12;47.54;101271.56;7359656;19;20011;-61
2022/04/25 09:14:03;;;;;;;0.00;0.00;;;;;;;15.08;48.17;101258.56;7361056;19;20043;-61
2022/04/25 09:16:29;;;;;;;0.00;0.00;;;;;;;15.25;47.43;101270.22;7354707;19;20033;-62
2022/04/25 09:18:54;;;;;;;0.00;0.00;;;;;;;15.39;47.86;101284.72;7339296;19;20014;-61
2022/04/25 09:21:20;;;;;;;0.00;0.00;;;;;;;15.57;47.29;101289.38;7356314;19;20013;-62
2022/04/25 09:23:45;;;;;;;0.00;0.00;;;;;;;15.73;46.74;101284.47;7358451;19;20013;-62
2022/04/25 09:26:28;;;;;;;0.00;0.00;;;;;;;15.80;46.92;101273.66;7359442;19;20778;-62
2022/04/25 09:28:58;;;;;;;0.00;0.00;;;;;;;15.98;46.05;101285.31;7360529;19;20028;-62
2022/04/25 09:31:27;;;;;;;0.00;0.00;;;;;;;15.94;45.74;101293.38;7356814;19;20072;-61
2022/04/25 09:33:54;;;;;;;0.00;0.00;;;;;;;15.92;45.60;101300.50;7355624;19;20770;-61
2022/04/25 09:36:21;;;;;;;0.00;0.00;;;;;;;15.91;45.77;101304.03;7346103;19;20002;-62
2022/04/25 09:38:46;;;;;;;0.00;0.00;;;;;;;15.91;45.39;101304.88;7360256;19;20022;-61
2022/04/25 09:41:13;;;;;;;0.00;0.00;;;;;;;15.83;45.22;101289.38;7357032;19;20474;-61
2022/04/25 09:43:41;;;;;;;0.00;0.00;;;;;;;15.95;45.35;101305.63;7349529;19;20053;-61
2022/04/25 09:46:09;;;;;;;0.00;0.00;;;;;;;15.93;45.12;101310.13;7361192;19;20011;-61
2022/04/25 09:48:38;;;;;;;0.03;0.03;;;;;;;15.91;45.18;101311.94;7361488;19;20010;-62
2022/04/25 09:51:08;;;;;;;0.00;0.00;;;;;;;15.90;45.36;101311.06;7359180;19;20011;-61
2022/04/25 09:53:41;;;;;;;0.00;0.00;;;;;;;15.95;45.50;101310.91;7366801;19;20010;-61
2022/04/25 09:56:20;;;;;;;0.00;0.00;;;;;;;15.94;44.82;101310.06;7359286;19;20020;-62
2022/04/25 09:59:01;;;;;;;0.00;0.00;;;;;;;15.95;45.35;101306.50;7362221;19;20003;-62
2022/04/25 10:01:26;;;;;;;0.00;0.00;;;;;;;15.90;44.40;101316.34;7367130;19;20045;-61
2022/04/25 10:03:52;;;;;;;0.00;0.00;;;;;;;15.83;44.30;101304.31;7364255;19;20048;-61
2022/04/25 10:06:20;;;;;;;0.00;0.00;;;;;;;15.93;43.96;101318.00;7351244;19;20014;-62
2022/04/25 10:08:46;;;;;;;0.00;0.00;;;;;;;15.88;44.36;101314.69;7362070;19;20014;-61
2022/04/25 10:11:13;;;;;;;0.00;0.00;;;;;;;15.95;44.01;101316.19;7362524;19;20018;-61
2022/04/25 10:13:38;;;;;;;0.00;0.00;;;;;;;15.86;44.82;101308.59;7365715;19;20034;-61
2022/04/25 10:16:05;;;;;;;0.03;0.03;;;;;;;15.85;44.83;101305.09;7362252;19;20015;-62
2022/04/25 10:18:31;;;;;;;0.00;0.00;;;;;;;15.99;44.75;101312.53;7365598;19;20019;-61
2022/04/25 10:20:57;;;;;;;0.00;0.00;;;;;;;16.04;45.49;101315.84;7353389;19;20400;-61
2022/04/25 10:23:24;;;;;;;0.10;0.10;;;;;;;16.00;44.75;101306.34;7360450;19;20046;-61
2022/04/25 10:25:55;;;;;;;0.00;0.00;;;;;;;16.16;45.03;101320.69;7362896;19;20010;-62
2022/04/25 10:28:30;;;;;;;0.00;0.00;;;;;;;16.19;45.56;101315.31;7362662;19;20700;-61
2022/04/25 10:31:14;;;;;;;0.00;0.00;;;;;;;16.19;44.80;101303.91;7365703;19;20006;-61
2022/04/25 10:33:51;;;;;;;0.00;0.00;;;;;;;16.30;44.49;101309.66;7364682;19;20007;-60
2022/04/25 10:36:42;;;;;;;0.00;0.00;;;;;;;16.50;44.71;101315.03;7358626;19;20038;-61
2022/04/25 10:39:24;;;;;;;0.10;0.10;;;;;;;16.61;44.85;101318.13;7258926;19;2004383;-61
2022/04/25 10:44:36;;;;;;;0.00;0.00;;;;;;;16.77;43.23;101322.84;7357401;19;20005;-62
2022/04/25 10:47:14;;;;;;;0.00;0.00;;;;;;;16.89;42.91;101310.97;7362280;19;20002;-61
2022/04/25 10:49:52;;;;;;;0.10;0.10;;;;;;;16.95;42.36;101321.28;7357203;19;20013;-61
2022/04/25 10:52:41;;;;;;;0.10;0.10;;;;;;;17.11;43.27;101322.38;7359616;19;20650;-61
2022/04/25 10:55:33;;;;;;;0.00;0.00;;;;;;;17.23;42.67;101326.31;7363354;19;20010;-61
2022/04/25 10:58:01;;;;;;;0.00;0.00;;;;;;;17.41;41.85;101316.78;7262069;19;2004439;-61
2022/04/25 11:00:39;;;;;;;0.05;0.05;;;;;;;17.57;42.96;101321.34;7351608;19;20086;-62
2022/04/25 11:03:23;;;;;;;0.03;0.03;;;;;;;17.77;42.57;101323.19;7354331;19;20426;-62
2022/04/25 11:05:55;;;;;;;0.00;0.00;;;;;;;17.88;42.50;101318.31;7353687;19;20006;-62
2022/04/25 11:08:20;;;;;;;0.00;0.00;;;;;;;18.08;42.07;101321.88;7357590;19;20002;-62
2022/04/25 11:10:45;;;;;;;0.00;0.00;;;;;;;18.28;42.13;101319.19;7358133;19;20600;-62
2022/04/25 11:13:18;;;;;;;0.00;0.00;;;;;;;18.51;40.28;101314.66;7364263;19;20092;-62
2022/04/25 11:15:48;;;;;;;0.10;0.10;;;;;;;18.79;40.26;101309.81;7355527;19;20009;-62
2022/04/25 11:18:37;;;;;;;0.05;0.05;;;;;;;18.98;40.89;101316.91;7354867;19;20003;-63
2022/04/25 11:21:07;;;;;;;0.00;0.00;;;;;;;19.04;39.14;101321.88;7359558;19;20107;-62
2022/04/25 11:23:34;;;;;;;0.00;0.00;;;;;;;19.18;39.63;101322.09;7364433;19;20006;-60
2022/04/25 11:26:04;;;;;;;0.00;0.00;;;;;;;19.31;39.68;101315.25;7351363;19;20041;-60
2022/04/25 11:28:30;;;;;;;0.00;0.00;;;;;;;19.34;38.99;101303.66;7362715;19;20013;-62
2022/04/25 11:31:13;;;;;;;0.10;0.10;;;;;;;19.65;40.09;101318.88;7349987;19;20010;-62
2022/04/25 11:33:40;;;;;;;0.00;0.00;;;;;;;19.68;38.63;101321.41;7349042;19;20073;-62
2022/04/25 11:36:06;;;;;;;0.00;0.00;;;;;;;19.73;38.48;101313.22;7363229;19;20045;-61
2022/04/25 11:41:23;;;;;;;0.00;0.00;;;;;;;19.99;37.72;101314.50;7256463;19;2004509;-61
2022/04/25 11:43:48;;;;;;;0.00;0.00;;;;;;;20.11;37.37;101314.72;7360774;19;19999;-62
2022/04/25 11:46:14;;;;;;;0.00;0.00;;;;;;;20.23;37.81;101317.69;7354425;19;20013;-62
2022/04/25 11:48:40;;;;;;;0.00;0.00;;;;;;;20.33;37.55;101317.09;7364336;19;20476;-63
2022/04/25 11:51:06;;;;;;;0.00;0.00;;;;;;;20.44;36.32;101320.03;7360986;19;20010;-62
2022/04/25 11:53:32;;;;;;;0.00;0.00;;;;;;;20.52;36.88;101324.94;7356311;19;20010;-62
2022/04/25 11:56:01;;;;;;;0.10;0.10;;;;;;;20.51;36.72;101307.31;7357139;19;20031;-62
2022/04/25 11:58:30;;;;;;;0.00;0.00;;;;;;;20.73;37.00;101320.25;7357895;19;20802;-63